createdAt,value
2022-11-19T00:02:14.844Z,10.47
2022-11-19T00:04:43.243Z,10.47
2022-11-19T00:07:11.557Z,10.46
2022-11-19T00:09:41.243Z,10.46
2022-11-19T00:12:29.054Z,10.44
2022-11-19T00:14:57.339Z,10.41
2022-11-19T00:17:25.623Z,10.41
2022-11-19T00:19:53.835Z,10.36
2022-11-19T00:22:22.136Z,10.34
2022-11-19T00:24:51.775Z,10.32
2022-11-19T00:27:20.067Z,10.27
2022-11-19T00:29:48.326Z,10.24
2022-11-19T00:32:16.761Z,10.23
2022-11-19T00:34:45.028Z,10.19
2022-11-19T00:37:13.214Z,10.17
2022-11-19T00:39:41.512Z,10.13
2022-11-19T00:42:11.170Z,10.10
2022-11-19T00:44:39.488Z,10.09
2022-11-19T00:47:07.780Z,10.07
2022-11-19T00:49:36.140Z,10.06
2022-11-19T00:52:05.083Z,10.03
2022-11-19T00:54:34.435Z,10.02
2022-11-19T00:57:02.750Z,10.01
2022-11-19T00:59:32.394Z,10.00
2022-11-19T01:02:00.664Z,10.00
2022-11-19T01:04:28.966Z,9.98
2022-11-19T01:06:57.270Z,9.98
2022-11-19T01:09:25.865Z,10.00
2022-11-19T01:11:54.211Z,9.99
2022-11-19T01:14:22.658Z,9.99
2022-11-19T01:16:52.262Z,9.99
2022-11-19T01:19:20.782Z,10.00
2022-11-19T01:21:49.347Z,10.01
2022-11-19T01:24:17.637Z,10.03
2022-11-19T01:26:46.342Z,10.01
2022-11-19T01:29:14.978Z,10.04
2022-11-19T01:31:43.317Z,10.03
2022-11-19T01:34:12.889Z,10.05
2022-11-19T01:36:41.183Z,10.06
2022-11-19T01:39:09.531Z,10.08
2022-11-19T01:41:37.813Z,10.10
2022-11-19T01:44:08.348Z,10.11
2022-11-19T01:46:39.743Z,10.10
2022-11-19T01:49:14.362Z,10.08
2022-11-19T01:51:49.847Z,10.06
2022-11-19T01:54:25.568Z,10.07
2022-11-19T01:56:54.611Z,10.08
2022-11-19T01:59:23.278Z,10.08
2022-11-19T02:01:51.595Z,10.07
2022-11-19T02:04:22.805Z,10.07
2022-11-19T02:06:51.548Z,10.07
2022-11-19T02:09:20.433Z,10.06
2022-11-19T02:12:24.597Z,10.04
2022-11-19T02:15:09.422Z,10.03
2022-11-19T02:17:58.355Z,10.03
2022-11-19T02:20:57.624Z,10.02
2022-11-19T02:23:58.673Z,10.00
2022-11-19T02:27:14.292Z,10.00
2022-11-19T02:30:05.180Z,9.98
2022-11-19T02:32:37.906Z,9.99
2022-11-19T02:35:17.168Z,9.98
2022-11-19T02:37:51.995Z,9.97
2022-11-19T02:40:26.307Z,9.97
2022-11-19T02:43:05.935Z,9.95
2022-11-19T02:45:40.635Z,9.93
2022-11-19T02:48:15.648Z,9.93
2022-11-19T02:50:48.243Z,9.92
2022-11-19T02:53:16.624Z,9.91
2022-11-19T02:56:07.701Z,9.92
2022-11-19T02:58:57.521Z,9.86
2022-11-19T03:01:46.745Z,9.85
2022-11-19T03:04:33.506Z,9.83
2022-11-19T03:07:06.803Z,9.80
2022-11-19T03:09:40.392Z,9.78
2022-11-19T03:12:19.156Z,9.76
2022-11-19T03:15:14.027Z,9.69
2022-11-19T03:18:02.424Z,9.64
2022-11-19T03:20:38.467Z,9.61
2022-11-19T03:23:13.335Z,9.58
2022-11-19T03:25:46.399Z,9.56
2022-11-19T03:28:21.024Z,9.54
2022-11-19T03:30:52.320Z,9.53
2022-11-19T03:33:25.696Z,9.49
2022-11-19T03:35:58.914Z,9.48
2022-11-19T03:38:31.934Z,9.46
2022-11-19T03:41:02.291Z,9.43
2022-11-19T03:43:36.779Z,9.42
2022-11-19T03:46:08.071Z,9.37
2022-11-19T03:48:39.265Z,9.36
2022-11-19T03:51:13.562Z,9.32
2022-11-19T03:53:41.936Z,9.32
2022-11-19T03:56:14.897Z,9.29
2022-11-19T03:58:46.251Z,9.28
2022-11-19T04:01:15.071Z,9.26
2022-11-19T04:04:04.721Z,9.24
2022-11-19T04:06:33.014Z,9.21
2022-11-19T04:09:01.241Z,9.20
2022-11-19T04:11:29.463Z,9.18
2022-11-19T04:13:57.687Z,9.18
2022-11-19T04:16:25.919Z,9.14
2022-11-19T04:18:55.583Z,9.12
2022-11-19T04:21:23.823Z,9.10
2022-11-19T04:23:52.080Z,9.06
2022-11-19T04:26:20.327Z,9.02
2022-11-19T04:28:48.568Z,8.98
2022-11-19T04:31:18.180Z,8.93
2022-11-19T04:33:46.716Z,8.89
2022-11-19T04:36:16.303Z,8.84
2022-11-19T04:38:44.592Z,8.80
2022-11-19T04:41:12.896Z,8.74
2022-11-19T04:43:41.340Z,8.71
2022-11-19T04:46:09.689Z,8.68
2022-11-19T04:48:37.954Z,8.64
2022-11-19T04:51:06.267Z,8.60
2022-11-19T04:53:35.907Z,8.54
2022-11-19T04:56:04.209Z,8.51
2022-11-19T04:58:32.490Z,8.48
2022-11-19T05:01:00.972Z,8.45
2022-11-19T05:03:29.349Z,8.42
2022-11-19T05:05:57.576Z,8.37
2022-11-19T05:08:26.215Z,8.31
2022-11-19T05:10:55.875Z,8.30
2022-11-19T05:13:24.183Z,8.24
2022-11-19T05:15:52.504Z,8.21
2022-11-19T05:18:20.851Z,8.17
2022-11-19T05:20:49.492Z,8.12
2022-11-19T05:23:17.714Z,8.09
2022-11-19T05:25:45.980Z,8.04
2022-11-19T05:28:15.654Z,8.00
2022-11-19T05:30:43.945Z,7.99
2022-11-19T05:33:12.264Z,7.95
2022-11-19T05:35:40.543Z,7.94
2022-11-19T05:38:08.843Z,7.94
2022-11-19T05:40:37.167Z,7.92
2022-11-19T05:43:06.767Z,7.88
2022-11-19T05:45:36.448Z,7.89
2022-11-19T05:48:04.842Z,7.88
2022-11-19T05:50:33.157Z,7.87
2022-11-19T05:53:01.409Z,7.87
2022-11-19T05:55:29.663Z,7.86
2022-11-19T05:57:57.891Z,7.84
2022-11-19T06:00:26.212Z,7.81
2022-11-19T06:02:56.368Z,7.81
2022-11-19T06:05:24.710Z,7.79
2022-11-19T06:07:53.031Z,7.81
2022-11-19T06:10:21.345Z,7.78
2022-11-19T06:12:49.623Z,7.76
2022-11-19T06:15:18.100Z,7.76
2022-11-19T06:17:46.445Z,7.75
2022-11-19T06:20:16.252Z,7.75
2022-11-19T06:22:44.473Z,7.75
2022-11-19T06:25:12.796Z,7.75
2022-11-19T06:27:41.065Z,7.74
2022-11-19T06:30:11.078Z,7.73
2022-11-19T06:32:39.335Z,7.70
2022-11-19T06:35:08.666Z,7.68
2022-11-19T06:37:38.498Z,7.67
2022-11-19T06:40:08.751Z,7.67
2022-11-19T06:42:39.635Z,7.67
2022-11-19T06:45:11.247Z,7.63
2022-11-19T06:47:41.080Z,7.63
2022-11-19T06:50:11.831Z,7.60
2022-11-19T06:52:41.720Z,7.62
2022-11-19T06:55:11.385Z,7.61
2022-11-19T06:57:39.970Z,7.59
2022-11-19T07:00:10.339Z,7.60
2022-11-19T07:02:38.948Z,7.59
2022-11-19T07:05:08.399Z,7.59
2022-11-19T07:07:36.841Z,7.60
2022-11-19T07:10:07.750Z,7.60
2022-11-19T07:12:36.018Z,7.60
2022-11-19T07:15:05.261Z,7.57
2022-11-19T07:17:34.091Z,7.59
2022-11-19T07:20:02.352Z,7.60
2022-11-19T07:22:30.635Z,7.60
2022-11-19T07:24:58.955Z,7.60
2022-11-19T07:27:28.592Z,7.60
2022-11-19T07:29:56.864Z,7.61
2022-11-19T07:32:25.103Z,7.60
2022-11-19T07:34:53.577Z,7.60
2022-11-19T07:37:21.975Z,7.60
2022-11-19T07:39:50.248Z,7.61
2022-11-19T07:42:36.235Z,7.61
2022-11-19T07:45:07.558Z,7.59
2022-11-19T07:47:35.967Z,7.58
2022-11-19T07:50:05.524Z,7.58
2022-11-19T07:52:33.846Z,7.58
2022-11-19T07:55:02.444Z,7.59
2022-11-19T07:57:30.805Z,7.61
2022-11-19T07:59:59.191Z,7.61
2022-11-19T08:02:28.811Z,7.61
2022-11-19T08:04:57.043Z,7.62
2022-11-19T08:07:25.368Z,7.62
2022-11-19T08:09:53.661Z,7.62
2022-11-19T08:12:22.091Z,7.65
2022-11-19T08:14:50.471Z,7.63
2022-11-19T08:17:36.379Z,7.63
2022-11-19T08:20:07.962Z,7.63
2022-11-19T08:22:37.088Z,7.65
2022-11-19T08:25:06.333Z,7.65
2022-11-19T08:27:34.981Z,7.66
2022-11-19T08:30:03.336Z,7.67
2022-11-19T08:32:31.634Z,7.68
2022-11-19T08:34:59.889Z,7.70
2022-11-19T08:37:29.572Z,7.69
2022-11-19T08:39:57.861Z,7.70
2022-11-19T08:42:43.728Z,7.71
2022-11-19T08:45:14.607Z,7.69
2022-11-19T08:47:46.382Z,7.69
2022-11-19T08:50:14.780Z,7.71
2022-11-19T08:52:44.656Z,7.73
2022-11-19T08:55:13.031Z,7.76
2022-11-19T08:57:41.274Z,7.77
2022-11-19T09:00:11.318Z,7.77
2022-11-19T09:02:39.580Z,7.79
2022-11-19T09:05:14.266Z,7.78
2022-11-19T09:07:44.308Z,7.78
2022-11-19T09:10:12.641Z,7.78
2022-11-19T09:12:40.977Z,7.79
2022-11-19T09:15:10.557Z,7.78
2022-11-19T09:17:43.767Z,7.77
2022-11-19T09:20:14.862Z,7.77
2022-11-19T09:22:44.503Z,7.76
2022-11-19T09:25:13.072Z,7.68
2022-11-19T09:27:41.362Z,7.71
2022-11-19T09:30:10.804Z,7.69
2022-11-19T09:32:39.085Z,7.67
2022-11-19T09:35:08.632Z,7.67
2022-11-19T09:37:36.925Z,7.67
2022-11-19T09:40:09.821Z,7.67
2022-11-19T09:42:44.334Z,7.64
2022-11-19T09:45:21.015Z,7.67
2022-11-19T09:48:16.959Z,7.65
2022-11-19T09:50:54.311Z,7.63
2022-11-19T09:53:24.589Z,7.64
2022-11-19T09:55:55.325Z,7.64
2022-11-19T09:58:27.994Z,7.64
2022-11-19T10:00:56.329Z,7.66
2022-11-19T10:03:32.791Z,7.66
2022-11-19T10:06:21.343Z,7.64
2022-11-19T10:09:19.312Z,7.63
2022-11-19T10:12:07.520Z,7.60
2022-11-19T10:14:58.244Z,7.58
2022-11-19T10:17:37.799Z,7.58
2022-11-19T10:20:24.576Z,7.59
2022-11-19T10:23:01.975Z,7.60
2022-11-19T10:25:34.268Z,7.60
2022-11-19T10:28:13.040Z,7.61
2022-11-19T10:30:44.435Z,7.62
2022-11-19T10:33:18.277Z,7.65
2022-11-19T10:35:51.914Z,7.65
2022-11-19T10:38:26.083Z,7.66
2022-11-19T10:40:59.683Z,7.66
2022-11-19T10:43:35.953Z,7.65
2022-11-19T10:46:07.563Z,7.65
2022-11-19T10:48:42.803Z,7.62
2022-11-19T10:51:19.544Z,7.62
2022-11-19T10:53:48.368Z,7.60
2022-11-19T10:56:21.182Z,7.58
2022-11-19T10:58:55.771Z,7.57
2022-11-19T11:01:31.349Z,7.57
2022-11-19T11:04:08.286Z,7.56
2022-11-19T11:06:53.493Z,7.55
2022-11-19T11:09:33.864Z,7.53
2022-11-19T11:12:29.818Z,7.53
2022-11-19T11:15:08.456Z,7.52
2022-11-19T11:17:38.673Z,7.53
2022-11-19T11:20:22.034Z,7.53
2022-11-19T11:22:52.258Z,7.56
2022-11-19T11:25:24.140Z,7.55
2022-11-19T11:28:07.356Z,7.56
2022-11-19T11:30:37.005Z,7.56
2022-11-19T11:33:32.991Z,7.56
2022-11-19T11:36:06.286Z,7.58
2022-11-19T11:38:43.465Z,7.59
2022-11-19T11:44:06.515Z,7.58
2022-11-19T11:46:43.315Z,7.59
2022-11-19T11:49:27.407Z,7.60
2022-11-19T11:52:08.294Z,7.60
2022-11-19T11:54:37.483Z,7.63
2022-11-19T11:57:17.744Z,7.61
2022-11-19T11:59:46.441Z,7.61
2022-11-19T12:02:27.032Z,7.60
2022-11-19T12:04:57.026Z,7.62
2022-11-19T12:08:14.973Z,7.59
2022-11-19T12:10:50.842Z,7.59
2022-11-19T12:13:48.909Z,7.58
2022-11-19T12:16:32.012Z,7.60
2022-11-19T12:19:30.936Z,7.59
2022-11-19T12:22:09.855Z,7.60
2022-11-19T12:25:01.495Z,7.60
2022-11-19T12:27:39.643Z,7.60
2022-11-19T12:30:21.280Z,7.59
2022-11-19T12:33:21.799Z,7.61
2022-11-19T12:36:02.844Z,7.62
2022-11-19T12:38:44.355Z,7.62
2022-11-19T12:41:49.186Z,7.62
2022-11-19T12:44:33.551Z,7.58
2022-11-19T12:47:13.057Z,7.60
2022-11-19T12:49:57.904Z,7.60
2022-11-19T12:52:53.034Z,7.60
2022-11-19T12:55:29.814Z,7.60
2022-11-19T12:58:08.643Z,7.59
2022-11-19T13:00:43.779Z,7.59
2022-11-19T13:03:16.603Z,7.60
2022-11-19T13:05:52.981Z,7.62
2022-11-19T13:08:31.261Z,7.63
2022-11-19T13:11:09.327Z,7.64
2022-11-19T13:13:42.848Z,7.63
2022-11-19T13:16:14.461Z,7.64
2022-11-19T13:18:47.847Z,7.65
2022-11-19T13:21:27.864Z,7.65
2022-11-19T13:23:57.945Z,7.66
2022-11-19T13:26:31.411Z,7.69
2022-11-19T13:29:10.274Z,7.69
2022-11-19T13:31:44.502Z,7.71
2022-11-19T13:34:20.787Z,7.73
2022-11-19T13:37:00.797Z,7.72
2022-11-19T13:39:36.546Z,7.72
2022-11-19T13:42:24.656Z,7.74
2022-11-19T13:44:53.323Z,7.72
2022-11-19T13:47:27.701Z,7.69
2022-11-19T13:50:00.406Z,7.68
2022-11-19T13:52:32.924Z,7.67
2022-11-19T13:55:02.937Z,7.63
2022-11-19T13:57:34.074Z,7.60
2022-11-19T14:00:06.742Z,7.58
2022-11-19T14:03:04.306Z,7.57
2022-11-19T14:05:53.992Z,7.53
2022-11-19T14:08:46.681Z,7.51
2022-11-19T14:11:38.834Z,7.47
2022-11-19T14:14:36.632Z,7.46
2022-11-19T14:17:34.139Z,7.45
2022-11-19T14:20:19.668Z,7.43
2022-11-19T14:23:15.072Z,7.42
2022-11-19T14:26:03.979Z,7.42
2022-11-19T14:28:48.480Z,7.40
2022-11-19T14:31:18.856Z,7.39
2022-11-19T14:34:04.082Z,7.42
2022-11-19T14:36:45.192Z,7.42
2022-11-19T14:39:27.576Z,7.43
2022-11-19T14:42:14.806Z,7.44
2022-11-19T14:44:45.233Z,7.45
2022-11-19T14:47:35.648Z,7.41
2022-11-19T14:50:08.634Z,7.44
2022-11-19T14:52:39.985Z,7.44
2022-11-19T14:55:22.700Z,7.43
2022-11-19T14:57:59.709Z,7.42
2022-11-19T15:00:34.179Z,7.44
2022-11-19T15:03:04.830Z,7.45
2022-11-19T15:05:36.806Z,7.45
2022-11-19T15:08:50.462Z,7.43
2022-11-19T15:11:20.077Z,7.43
2022-11-19T15:13:49.937Z,7.43
2022-11-19T15:16:23.419Z,7.41
2022-11-19T15:19:23.160Z,7.39
2022-11-19T15:22:30.953Z,7.35
2022-11-19T15:25:20.487Z,7.35
2022-11-19T15:28:01.915Z,7.35
2022-11-19T15:30:50.142Z,7.36
2022-11-19T15:34:09.934Z,7.34
2022-11-19T15:36:41.715Z,7.33
2022-11-19T15:39:17.979Z,7.32
2022-11-19T15:42:01.341Z,7.33
2022-11-19T15:44:42.963Z,7.31
2022-11-19T15:47:17.229Z,7.30
2022-11-19T15:49:48.426Z,7.31
2022-11-19T15:52:23.802Z,7.30
2022-11-19T15:54:52.078Z,7.30
2022-11-19T15:57:24.711Z,7.31
2022-11-19T15:59:57.864Z,7.32
2022-11-19T16:02:38.851Z,7.30
2022-11-19T16:05:20.471Z,7.28
2022-11-19T16:07:49.544Z,7.27
2022-11-19T16:10:26.099Z,7.25
2022-11-19T16:13:13.602Z,7.23
2022-11-19T16:16:07.001Z,7.23
2022-11-19T16:18:35.330Z,7.21
2022-11-19T16:21:06.147Z,7.23
2022-11-19T16:23:54.396Z,7.23
2022-11-19T16:26:23.827Z,7.23
2022-11-19T16:28:52.133Z,7.26
2022-11-19T16:31:20.434Z,7.29
2022-11-19T16:33:55.760Z,7.29
2022-11-19T16:36:26.271Z,7.29
2022-11-19T16:38:55.732Z,7.30
2022-11-19T16:41:43.447Z,7.30
2022-11-19T16:44:15.352Z,7.29
2022-11-19T16:46:44.087Z,7.31
2022-11-19T16:49:30.853Z,7.33
2022-11-19T16:52:03.060Z,7.34
2022-11-19T16:54:51.548Z,7.35
2022-11-19T16:57:23.292Z,7.35
2022-11-19T16:59:54.955Z,7.35
2022-11-19T17:02:26.778Z,7.40
2022-11-19T17:04:55.172Z,7.40
2022-11-19T17:07:27.941Z,7.42
2022-11-19T17:10:30.282Z,7.42
2022-11-19T17:13:02.754Z,7.42
2022-11-19T17:15:40.057Z,7.41
2022-11-19T17:18:18.181Z,7.40
2022-11-19T17:20:53.286Z,7.38
2022-11-19T17:23:25.429Z,7.41
2022-11-19T17:25:56.488Z,7.39
2022-11-19T17:28:35.161Z,7.39
2022-11-19T17:31:07.605Z,7.40
2022-11-19T17:33:37.141Z,7.41
2022-11-19T17:36:05.924Z,7.41
2022-11-19T17:38:36.151Z,7.44
2022-11-19T17:41:07.451Z,7.44
2022-11-19T17:43:56.203Z,7.45
2022-11-19T17:46:25.857Z,7.45
2022-11-19T17:48:54.929Z,7.45
2022-11-19T17:51:26.059Z,7.46
2022-11-19T17:53:57.941Z,7.47
2022-11-19T17:56:29.038Z,7.48
2022-11-19T17:58:59.679Z,7.50
2022-11-19T18:01:28.181Z,7.51
2022-11-19T18:03:56.547Z,7.52
2022-11-19T18:06:24.931Z,7.51
2022-11-19T18:08:53.351Z,7.51
2022-11-19T18:11:25.524Z,7.51
2022-11-19T18:13:57.253Z,7.52
2022-11-19T18:16:29.077Z,7.52
2022-11-19T18:18:57.453Z,7.52
2022-11-19T18:21:27.231Z,7.51
2022-11-19T18:23:55.600Z,7.51
2022-11-19T18:26:25.289Z,7.51
2022-11-19T18:28:53.594Z,7.52
2022-11-19T18:31:24.427Z,7.50
2022-11-19T18:33:53.060Z,7.51
2022-11-19T18:36:22.016Z,7.50
2022-11-19T18:38:50.268Z,7.50
2022-11-19T18:41:19.992Z,7.52
2022-11-19T18:44:07.481Z,7.54
2022-11-19T18:46:35.795Z,7.53
2022-11-19T18:49:04.433Z,7.53
2022-11-19T18:51:33.219Z,7.53
2022-11-19T18:54:01.801Z,7.54
2022-11-19T18:56:30.257Z,7.55
2022-11-19T18:59:04.481Z,7.54
2022-11-19T19:01:33.807Z,7.54
2022-11-19T19:04:02.333Z,7.55
2022-11-19T19:06:30.723Z,7.55
2022-11-19T19:08:59.183Z,7.55
2022-11-19T19:11:45.156Z,7.55
2022-11-19T19:14:14.883Z,7.56
2022-11-19T19:16:43.369Z,7.56
2022-11-19T19:19:14.120Z,7.56
2022-11-19T19:21:42.597Z,7.59
2022-11-19T19:24:11.419Z,7.60
2022-11-19T19:26:39.810Z,7.61
2022-11-19T19:29:08.264Z,7.64
2022-11-19T19:31:38.122Z,7.64
2022-11-19T19:34:06.670Z,7.66
2022-11-19T19:36:35.548Z,7.66
2022-11-19T19:39:04.403Z,7.67
2022-11-19T19:41:33.466Z,7.67
2022-11-19T19:44:04.038Z,7.67
2022-11-19T19:46:33.649Z,7.68
2022-11-19T19:49:03.428Z,7.68
2022-11-19T19:51:32.808Z,7.67
2022-11-19T19:54:01.540Z,7.67
2022-11-19T19:56:32.133Z,7.68
2022-11-19T19:59:01.770Z,7.69
2022-11-19T20:01:32.623Z,7.69
2022-11-19T20:04:05.181Z,7.69
2022-11-19T20:06:35.323Z,7.70
2022-11-19T20:09:08.394Z,7.69
2022-11-19T20:11:37.968Z,7.71
2022-11-19T20:14:06.861Z,7.70
2022-11-19T20:16:36.134Z,7.71
2022-11-19T20:19:07.312Z,7.72
2022-11-19T20:21:36.532Z,7.72
2022-11-19T20:24:10.455Z,7.72
2022-11-19T20:26:42.479Z,7.72
2022-11-19T20:29:14.397Z,7.71
2022-11-19T20:31:47.805Z,7.71
2022-11-19T20:34:18.420Z,7.75
2022-11-19T20:36:46.759Z,7.74
2022-11-19T20:39:15.037Z,7.75
2022-11-19T20:42:00.574Z,7.75
2022-11-19T20:44:28.906Z,7.75
2022-11-19T20:46:59.164Z,7.75
2022-11-19T20:49:30.596Z,7.75
2022-11-19T20:51:59.590Z,7.74
2022-11-19T20:54:28.454Z,7.74
2022-11-19T20:56:59.147Z,7.75
2022-11-19T20:59:29.688Z,7.76
2022-11-19T21:01:58.727Z,7.75
2022-11-19T21:04:31.377Z,7.75
2022-11-19T21:06:59.714Z,7.76
2022-11-19T21:09:28.147Z,7.76
2022-11-19T21:11:56.444Z,7.76
2022-11-19T21:14:24.779Z,7.76
2022-11-19T21:16:53.021Z,7.77
2022-11-19T21:19:21.527Z,7.76
2022-11-19T21:21:51.318Z,7.76
2022-11-19T21:24:19.808Z,7.76
2022-11-19T21:26:48.110Z,7.76
2022-11-19T21:29:16.441Z,7.76
2022-11-19T21:31:46.698Z,7.76
2022-11-19T21:34:17.777Z,7.76
2022-11-19T21:36:47.276Z,7.75
2022-11-19T21:39:20.821Z,7.74
2022-11-19T21:41:49.533Z,7.74
2022-11-19T21:44:21.419Z,7.75
2022-11-19T21:46:50.494Z,7.73
2022-11-19T21:49:19.506Z,7.72
2022-11-19T21:51:49.065Z,7.72
2022-11-19T21:54:18.907Z,7.71
2022-11-19T21:56:47.456Z,7.70
2022-11-19T21:59:15.695Z,7.70
2022-11-19T22:01:44.042Z,7.70
2022-11-19T22:04:15.433Z,7.72
2022-11-19T22:06:43.758Z,7.70
2022-11-19T22:09:12.119Z,7.71
2022-11-19T22:11:41.816Z,7.71
2022-11-19T22:14:10.765Z,7.71
2022-11-19T22:16:41.104Z,7.70
2022-11-19T22:19:11.544Z,7.68
2022-11-19T22:21:40.343Z,7.69
2022-11-19T22:24:08.771Z,7.70
2022-11-19T22:26:37.143Z,7.69
2022-11-19T22:29:06.917Z,7.69
2022-11-19T22:31:35.229Z,7.67
2022-11-19T22:34:03.583Z,7.68
2022-11-19T22:36:34.307Z,7.67
2022-11-19T22:39:02.927Z,7.67
2022-11-19T22:41:31.415Z,7.67
2022-11-19T22:43:59.829Z,7.66
2022-11-19T22:46:29.848Z,7.66
2022-11-19T22:48:58.251Z,7.65
2022-11-19T22:51:27.427Z,7.64
2022-11-19T22:53:57.146Z,7.63
2022-11-19T22:56:28.489Z,7.63
2022-11-19T22:58:57.772Z,7.64
2022-11-19T23:01:30.140Z,7.63
2022-11-19T23:04:01.881Z,7.64
2022-11-19T23:06:30.458Z,7.62
2022-11-19T23:08:58.856Z,7.61
2022-11-19T23:11:53.101Z,7.58
2022-11-19T23:14:21.888Z,7.60
2022-11-19T23:16:51.624Z,7.60
2022-11-19T23:19:20.400Z,7.60
2022-11-19T23:21:49.276Z,7.61
2022-11-19T23:24:17.852Z,7.60
2022-11-19T23:26:46.153Z,7.61
2022-11-19T23:29:14.514Z,7.61
2022-11-19T23:31:42.919Z,7.60
2022-11-19T23:34:12.769Z,7.62
2022-11-19T23:36:42.805Z,7.62
2022-11-19T23:39:17.550Z,7.62
2022-11-19T23:41:46.853Z,7.62
2022-11-19T23:44:15.313Z,7.63
2022-11-19T23:46:43.840Z,7.64
2022-11-19T23:49:13.751Z,7.63
2022-11-19T23:51:42.164Z,7.64
2022-11-19T23:54:14.264Z,7.63
2022-11-19T23:56:42.864Z,7.62
2022-11-19T23:59:11.325Z,7.62
